createdAt,value
2022-08-25T00:00:14.627Z,11.32
2022-08-25T00:02:43.773Z,12.02
2022-08-25T00:05:26.111Z,10.80
2022-08-25T00:07:54.709Z,10.65
2022-08-25T00:10:21.857Z,12.63
2022-08-25T00:12:49.128Z,9.93
2022-08-25T00:15:16.439Z,10.23
2022-08-25T00:17:43.522Z,10.93
2022-08-25T00:20:10.923Z,17.33
2022-08-25T00:22:37.978Z,13.73
2022-08-25T00:25:05.398Z,10.68
2022-08-25T00:27:32.422Z,12.18
2022-08-25T00:30:00.353Z,12.90
2022-08-25T00:32:27.528Z,14.73
2022-08-25T00:34:54.545Z,16.58
2022-08-25T00:37:21.671Z,11.57
2022-08-25T00:39:48.762Z,11.80
2022-08-25T00:42:16.456Z,12.80
2022-08-25T00:44:44.086Z,15.13
2022-08-25T00:47:11.178Z,14.63
2022-08-25T00:49:45.371Z,14.30
2022-08-25T00:52:20.766Z,13.98
2022-08-25T00:55:04.355Z,15.93
2022-08-25T00:57:40.870Z,14.65
2022-08-25T01:00:14.276Z,11.55
2022-08-25T01:02:41.729Z,12.30
2022-08-25T01:05:09.745Z,12.43
2022-08-25T01:07:37.464Z,13.48
2022-08-25T01:10:07.699Z,9.98
2022-08-25T01:12:36.602Z,12.15
2022-08-25T01:15:06.517Z,13.65
2022-08-25T01:17:45.566Z,12.82
2022-08-25T01:20:14.836Z,14.70
2022-08-25T01:22:42.165Z,13.02
2022-08-25T01:25:24.379Z,13.52
2022-08-25T01:27:51.993Z,14.77
2022-08-25T01:30:19.304Z,14.23
2022-08-25T01:32:46.566Z,11.25
2022-08-25T01:35:14.315Z,12.15
2022-08-25T01:37:41.352Z,11.13
2022-08-25T01:40:09.270Z,12.85
2022-08-25T01:43:01.316Z,11.85
2022-08-25T01:45:28.893Z,11.00
2022-08-25T01:47:56.018Z,10.15
2022-08-25T01:50:23.316Z,11.02
2022-08-25T01:52:55.728Z,11.10
2022-08-25T01:55:23.346Z,13.85
2022-08-25T01:57:50.459Z,19.05
2022-08-25T02:00:20.101Z,40.78
2022-08-25T02:02:47.312Z,32.50
2022-08-25T02:05:23.320Z,43.72
2022-08-25T02:07:50.864Z,43.35
2022-08-25T02:10:17.886Z,23.27
2022-08-25T02:12:45.137Z,22.17
2022-08-25T02:15:12.448Z,15.68
2022-08-25T02:17:39.579Z,14.80
2022-08-25T02:20:09.627Z,12.70
2022-08-25T02:22:37.048Z,14.15
2022-08-25T02:25:05.836Z,12.63
2022-08-25T02:27:32.987Z,10.80
2022-08-25T02:30:00.045Z,11.45
2022-08-25T02:32:27.885Z,11.80
2022-08-25T02:34:54.955Z,10.88
2022-08-25T02:37:22.030Z,11.80
2022-08-25T02:39:49.137Z,11.55
2022-08-25T02:42:16.164Z,11.13
2022-08-25T02:44:43.221Z,9.38
2022-08-25T02:47:10.292Z,9.98
2022-08-25T02:49:37.622Z,9.82
2022-08-25T02:52:05.409Z,8.60
2022-08-25T02:54:32.500Z,9.52
2022-08-25T02:57:00.028Z,11.35
2022-08-25T02:59:27.230Z,8.10
2022-08-25T03:01:54.308Z,7.07
2022-08-25T03:04:21.405Z,9.38
2022-08-25T03:06:48.498Z,13.85
2022-08-25T03:09:16.685Z,12.60
2022-08-25T03:11:43.978Z,16.00
2022-08-25T03:14:11.220Z,23.35
2022-08-25T03:16:38.669Z,17.45
2022-08-25T03:19:06.203Z,25.08
2022-08-25T03:21:33.249Z,27.55
2022-08-25T03:24:00.739Z,30.42
2022-08-25T03:26:46.528Z,22.58
2022-08-25T03:29:14.028Z,18.40
2022-08-25T03:31:43.046Z,19.98
2022-08-25T03:34:10.570Z,17.55
2022-08-25T03:36:38.019Z,22.60
2022-08-25T03:39:06.235Z,16.48
2022-08-25T03:41:33.370Z,18.83
2022-08-25T03:44:01.431Z,17.38
2022-08-25T03:46:34.199Z,15.13
2022-08-25T03:49:03.092Z,15.10
2022-08-25T03:51:33.412Z,16.98
2022-08-25T03:54:01.615Z,20.25
2022-08-25T03:56:29.004Z,22.38
2022-08-25T03:58:57.080Z,16.90
2022-08-25T04:01:25.552Z,22.85
2022-08-25T04:03:52.998Z,17.42
2022-08-25T04:06:20.488Z,22.15
2022-08-25T04:08:48.139Z,20.90
2022-08-25T04:11:18.423Z,19.02
2022-08-25T04:13:46.805Z,19.60
2022-08-25T04:16:16.325Z,29.95
2022-08-25T04:18:44.549Z,17.33
2022-08-25T04:21:12.424Z,19.17
2022-08-25T04:23:41.712Z,16.17
2022-08-25T04:26:11.242Z,15.38
2022-08-25T04:28:38.344Z,20.75
2022-08-25T04:31:14.590Z,13.68
2022-08-25T04:33:42.344Z,16.08
2022-08-25T04:36:12.473Z,15.57
2022-08-25T04:38:41.396Z,13.60
2022-08-25T04:41:10.533Z,15.32
2022-08-25T04:43:39.891Z,15.40
2022-08-25T04:46:22.614Z,15.23
2022-08-25T04:48:53.337Z,13.95
2022-08-25T04:51:27.865Z,13.70
2022-08-25T04:53:55.287Z,17.23
2022-08-25T04:56:25.180Z,15.23
2022-08-25T04:58:53.968Z,15.48
2022-08-25T05:01:24.883Z,12.73
2022-08-25T05:03:59.520Z,12.48
2022-08-25T05:06:28.440Z,12.40
2022-08-25T05:08:57.165Z,15.18
2022-08-25T05:11:24.940Z,12.60
2022-08-25T05:13:54.639Z,12.30
2022-08-25T05:16:23.907Z,11.25
2022-08-25T05:18:52.183Z,12.25
2022-08-25T05:21:21.916Z,11.82
2022-08-25T05:23:49.711Z,11.40
2022-08-25T05:26:22.262Z,15.27
2022-08-25T05:28:51.481Z,14.40
2022-08-25T05:31:20.046Z,11.90
2022-08-25T05:33:47.451Z,11.90
2022-08-25T05:36:15.741Z,11.85
2022-08-25T05:38:43.432Z,12.25
2022-08-25T05:41:15.779Z,12.05
2022-08-25T05:43:44.722Z,12.13
2022-08-25T05:46:13.113Z,12.35
2022-08-25T05:48:40.511Z,14.18
2022-08-25T05:51:10.503Z,15.77
2022-08-25T05:53:39.850Z,15.88
2022-08-25T05:56:07.413Z,15.35
2022-08-25T05:58:34.663Z,17.98
2022-08-25T06:01:20.370Z,17.80
2022-08-25T06:03:48.187Z,15.70
2022-08-25T06:06:16.904Z,15.48
2022-08-25T06:08:45.124Z,14.82
2022-08-25T06:11:13.719Z,15.90
2022-08-25T06:13:41.202Z,14.20
2022-08-25T06:16:08.581Z,16.40
2022-08-25T06:18:35.873Z,16.45
2022-08-25T06:21:14.303Z,19.70
2022-08-25T06:23:42.389Z,17.17
2022-08-25T06:26:20.636Z,19.75
2022-08-25T06:28:50.822Z,17.83
2022-08-25T06:31:19.146Z,19.38
2022-08-25T06:33:47.174Z,20.48
2022-08-25T06:36:15.527Z,17.65
2022-08-25T06:38:42.648Z,19.42
2022-08-25T06:41:13.094Z,19.52
2022-08-25T06:43:48.095Z,28.73
2022-08-25T06:46:23.086Z,19.35
2022-08-25T06:49:03.780Z,21.77
2022-08-25T06:51:30.803Z,18.58
2022-08-25T06:53:57.847Z,21.58
2022-08-25T06:56:24.853Z,20.58
2022-08-25T06:58:53.911Z,21.73
2022-08-25T07:01:26.333Z,21.08
2022-08-25T07:03:59.436Z,15.07
2022-08-25T07:06:31.698Z,19.63
2022-08-25T07:08:59.688Z,16.20
2022-08-25T07:11:27.419Z,19.00
2022-08-25T07:13:54.682Z,15.52
2022-08-25T07:16:22.043Z,18.63
2022-08-25T07:18:49.720Z,19.92
2022-08-25T07:21:18.764Z,16.27
2022-08-25T07:23:47.959Z,16.63
2022-08-25T07:26:39.094Z,16.17
2022-08-25T07:29:42.233Z,9.60
2022-08-25T07:32:09.873Z,8.75
2022-08-25T07:34:56.325Z,10.52
2022-08-25T07:37:48.410Z,7.40
2022-08-25T07:40:14.290Z,5.35
2022-08-25T07:42:42.416Z,6.68
2022-08-25T07:45:11.297Z,5.40
2022-08-25T07:47:39.025Z,9.18
2022-08-25T07:50:12.364Z,7.70
2022-08-25T07:52:42.716Z,8.13
2022-08-25T07:55:11.056Z,5.25
2022-08-25T07:57:40.936Z,6.45
2022-08-25T08:00:10.972Z,4.03
2022-08-25T08:02:42.149Z,7.75
2022-08-25T08:05:10.612Z,4.28
2022-08-25T08:07:43.311Z,7.13
2022-08-25T08:13:01.939Z,6.88
2022-08-25T08:15:29.857Z,7.78
2022-08-25T08:17:59.096Z,7.25
2022-08-25T08:20:27.072Z,5.65
2022-08-25T08:22:55.779Z,4.28
2022-08-25T08:25:27.272Z,4.57
2022-08-25T08:27:55.463Z,5.15
2022-08-25T08:30:26.458Z,5.55
2022-08-25T08:33:11.364Z,4.43
2022-08-25T08:35:40.413Z,3.05
2022-08-25T08:38:14.953Z,4.53
2022-08-25T08:41:48.891Z,4.70
2022-08-25T08:44:57.068Z,4.65
2022-08-25T08:47:26.626Z,8.60
2022-08-25T08:50:03.808Z,5.15
2022-08-25T08:52:40.739Z,4.22
2022-08-25T08:55:15.886Z,4.13
2022-08-25T09:00:20.186Z,5.00
2022-08-25T09:03:06.463Z,5.93
2022-08-25T09:05:50.295Z,4.00
2022-08-25T09:08:20.428Z,6.00
2022-08-25T09:10:54.265Z,4.60
2022-08-25T09:14:01.941Z,4.93
2022-08-25T09:16:55.883Z,4.50
2022-08-25T09:19:41.781Z,6.55
2022-08-25T09:22:35.102Z,4.45
2022-08-25T09:28:30.452Z,6.30
2022-08-25T09:31:19.695Z,5.55
2022-08-25T09:33:46.895Z,7.10
2022-08-25T09:36:14.883Z,6.68
2022-08-25T09:38:42.136Z,8.05
2022-08-25T09:41:11.349Z,7.47
2022-08-25T09:43:44.694Z,7.25
2022-08-25T09:46:14.043Z,9.20
2022-08-25T09:48:57.454Z,7.13
2022-08-25T09:51:37.829Z,6.82
2022-08-25T09:54:15.303Z,5.97
2022-08-25T09:57:01.971Z,9.65
2022-08-25T09:59:35.894Z,8.18
2022-08-25T10:02:32.885Z,7.63
2022-08-25T10:04:59.978Z,7.22
2022-08-25T10:07:37.176Z,9.68
2022-08-25T10:10:17.714Z,5.18
2022-08-25T10:12:51.363Z,5.90
2022-08-25T10:15:29.365Z,7.10
2022-08-25T10:18:26.110Z,4.90
2022-08-25T10:21:07.410Z,5.07
2022-08-25T10:23:38.883Z,4.38
2022-08-25T10:26:15.073Z,5.07
2022-08-25T10:28:59.218Z,5.80
2022-08-25T10:31:41.569Z,7.40
2022-08-25T10:34:31.299Z,5.03
2022-08-25T10:37:36.070Z,6.28
2022-08-25T10:40:21.055Z,6.07
2022-08-25T10:42:54.329Z,7.03
2022-08-25T10:45:44.474Z,8.38
2022-08-25T10:48:45.141Z,5.32
2022-08-25T10:51:41.069Z,4.53
2022-08-25T10:54:25.787Z,8.77
2022-08-25T10:57:07.081Z,4.50
2022-08-25T11:00:03.571Z,4.85
2022-08-25T11:02:52.534Z,4.18
2022-08-25T11:05:49.074Z,7.07
2022-08-25T11:08:38.449Z,7.05
2022-08-25T11:11:08.952Z,7.68
2022-08-25T11:13:50.678Z,5.65
2022-08-25T11:16:25.647Z,6.20
2022-08-25T11:19:21.670Z,6.40
2022-08-25T11:21:57.292Z,5.65
2022-08-25T11:24:43.175Z,5.50
2022-08-25T11:27:17.717Z,4.53
2022-08-25T11:30:08.472Z,6.07
2022-08-25T11:32:37.943Z,6.10
2022-08-25T11:35:10.241Z,7.45
2022-08-25T11:38:08.208Z,4.38
2022-08-25T11:40:56.256Z,3.53
2022-08-25T11:43:50.187Z,5.93
2022-08-25T11:46:31.485Z,3.83
2022-08-25T11:49:22.730Z,3.15
2022-08-25T11:51:51.480Z,5.38
2022-08-25T11:54:41.659Z,3.67
2022-08-25T11:57:23.964Z,3.78
2022-08-25T11:59:54.293Z,5.45
2022-08-25T12:02:36.648Z,2.72
2022-08-25T12:05:12.126Z,4.30
2022-08-25T12:08:20.108Z,4.60
2022-08-25T12:11:01.346Z,3.75
2022-08-25T12:13:50.871Z,2.75
2022-08-25T12:16:36.382Z,4.40
2022-08-25T12:19:25.495Z,7.63
2022-08-25T12:21:55.106Z,5.72
2022-08-25T12:24:48.791Z,4.15
2022-08-25T12:27:53.629Z,4.68
2022-08-25T12:30:38.634Z,2.45
2022-08-25T12:33:34.355Z,3.83
2022-08-25T12:36:11.190Z,3.03
2022-08-25T12:38:53.024Z,4.20
2022-08-25T12:41:27.125Z,3.60
2022-08-25T12:44:31.727Z,4.82
2022-08-25T12:47:12.544Z,4.72
2022-08-25T12:49:40.142Z,5.25
2022-08-25T12:52:16.695Z,7.28
2022-08-25T12:54:58.790Z,2.45
2022-08-25T12:57:50.138Z,4.35
2022-08-25T13:00:23.739Z,4.25
2022-08-25T13:03:05.364Z,4.35
2022-08-25T13:06:14.080Z,2.50
2022-08-25T13:08:46.954Z,5.72
2022-08-25T13:11:43.275Z,4.22
2022-08-25T13:14:37.577Z,3.13
2022-08-25T13:17:06.181Z,4.40
2022-08-25T13:19:34.618Z,4.60
2022-08-25T13:22:15.556Z,4.47
2022-08-25T13:24:45.612Z,5.85
2022-08-25T13:27:28.426Z,4.75
2022-08-25T13:29:59.088Z,5.63
2022-08-25T13:32:32.428Z,5.28
2022-08-25T13:35:12.464Z,3.08
2022-08-25T13:37:41.338Z,6.13
2022-08-25T13:40:14.479Z,5.05
2022-08-25T13:42:55.916Z,4.90
2022-08-25T13:45:30.068Z,5.05
2022-08-25T13:47:59.456Z,2.95
2022-08-25T13:50:26.880Z,5.85
2022-08-25T13:53:21.478Z,5.47
2022-08-25T13:55:52.236Z,3.35
2022-08-25T13:58:44.530Z,5.25
2022-08-25T14:01:23.530Z,3.55
2022-08-25T14:04:23.362Z,6.80
2022-08-25T14:07:34.460Z,7.28
2022-08-25T14:10:07.361Z,3.30
2022-08-25T14:12:44.797Z,4.63
2022-08-25T14:15:26.093Z,3.22
2022-08-25T14:18:13.826Z,3.90
2022-08-25T14:20:47.577Z,4.47
2022-08-25T14:23:19.481Z,4.60
2022-08-25T14:25:47.694Z,6.43
2022-08-25T14:28:18.135Z,4.03
2022-08-25T14:30:52.299Z,3.70
2022-08-25T14:33:23.246Z,3.72
2022-08-25T14:35:54.305Z,6.75
2022-08-25T14:38:24.814Z,3.15
2022-08-25T14:40:53.600Z,4.60
2022-08-25T14:43:23.970Z,3.83
2022-08-25T14:45:52.109Z,6.82
2022-08-25T14:48:42.526Z,8.98
2022-08-25T14:51:12.044Z,4.72
2022-08-25T14:53:39.374Z,2.30
2022-08-25T14:56:10.179Z,6.22
2022-08-25T14:58:51.252Z,5.85
2022-08-25T15:01:29.251Z,4.65
2022-08-25T15:04:16.016Z,4.82
2022-08-25T15:06:45.664Z,2.40
2022-08-25T15:09:16.542Z,8.07
2022-08-25T15:11:46.875Z,4.88
2022-08-25T15:14:17.479Z,3.15
2022-08-25T15:16:48.281Z,4.90
2022-08-25T15:19:18.830Z,2.78
2022-08-25T15:21:48.068Z,4.85
2022-08-25T15:24:17.525Z,3.75
2022-08-25T15:29:28.026Z,3.40
2022-08-25T15:31:55.449Z,2.47
2022-08-25T15:34:22.665Z,6.07
2022-08-25T15:36:50.382Z,6.57
2022-08-25T15:39:19.209Z,2.75
2022-08-25T15:41:52.956Z,6.10
2022-08-25T15:44:21.181Z,6.65
2022-08-25T15:46:50.286Z,3.88
2022-08-25T15:49:20.863Z,4.20
2022-08-25T15:51:52.534Z,4.32
2022-08-25T15:54:21.007Z,2.33
2022-08-25T15:56:48.209Z,3.28
2022-08-25T15:59:15.293Z,4.20
2022-08-25T16:01:43.823Z,2.88
2022-08-25T16:04:11.523Z,3.92
2022-08-25T16:06:38.889Z,2.00
2022-08-25T16:09:07.277Z,4.47
2022-08-25T16:11:35.646Z,3.13
2022-08-25T16:14:06.387Z,4.15
2022-08-25T16:16:33.666Z,5.57
2022-08-25T16:19:01.836Z,4.63
2022-08-25T16:21:33.109Z,8.30
2022-08-25T16:24:05.454Z,3.13
2022-08-25T16:26:36.582Z,4.45
2022-08-25T16:29:06.551Z,5.25
2022-08-25T16:31:33.885Z,6.13
2022-08-25T16:34:01.813Z,2.53
2022-08-25T16:36:29.418Z,4.47
2022-08-25T16:38:57.910Z,4.70
2022-08-25T16:41:34.023Z,3.08
2022-08-25T16:44:11.265Z,4.53
2022-08-25T16:46:40.830Z,2.22
2022-08-25T16:49:09.249Z,4.60
2022-08-25T16:51:38.485Z,4.13
2022-08-25T16:54:25.696Z,4.28
2022-08-25T16:56:54.661Z,3.33
2022-08-25T16:59:23.569Z,5.28
2022-08-25T17:01:51.635Z,4.28
2022-08-25T17:04:18.913Z,4.82
2022-08-25T17:06:49.588Z,4.90
2022-08-25T17:09:23.911Z,3.40
2022-08-25T17:11:54.236Z,5.22
2022-08-25T17:14:22.155Z,7.45
2022-08-25T17:16:51.207Z,4.22
2022-08-25T17:19:18.963Z,3.92
2022-08-25T17:21:47.296Z,4.40
2022-08-25T17:24:17.428Z,4.85
2022-08-25T17:26:47.290Z,4.28
2022-08-25T17:29:17.426Z,7.57
2022-08-25T17:31:48.322Z,5.88
2022-08-25T17:34:16.942Z,5.00
2022-08-25T17:36:48.444Z,5.88
2022-08-25T17:39:18.304Z,7.72
2022-08-25T17:41:45.811Z,4.80
2022-08-25T17:44:13.776Z,4.65
2022-08-25T17:46:47.333Z,3.97
2022-08-25T17:49:17.212Z,6.47
2022-08-25T17:51:44.471Z,6.30
2022-08-25T17:54:12.650Z,3.58
2022-08-25T17:56:39.991Z,4.32
2022-08-25T17:59:08.170Z,5.93
2022-08-25T18:01:40.678Z,4.65
2022-08-25T18:04:15.605Z,5.10
2022-08-25T18:06:45.618Z,6.00
2022-08-25T18:09:13.053Z,5.40
2022-08-25T18:11:40.172Z,5.50
2022-08-25T18:14:10.746Z,6.13
2022-08-25T18:16:38.494Z,4.97
2022-08-25T18:19:09.440Z,7.75
2022-08-25T18:21:37.112Z,8.13
2022-08-25T18:24:05.271Z,4.72
2022-08-25T18:26:32.972Z,7.18
2022-08-25T18:29:00.718Z,6.70
2022-08-25T18:31:28.264Z,5.60
2022-08-25T18:33:55.493Z,11.18
2022-08-25T18:36:22.635Z,7.75
2022-08-25T18:39:09.073Z,4.82
2022-08-25T18:41:40.101Z,6.15
2022-08-25T18:44:07.755Z,5.40
2022-08-25T18:46:35.444Z,8.80
2022-08-25T18:49:03.591Z,4.68
2022-08-25T18:51:32.888Z,6.05
2022-08-25T18:54:01.230Z,7.60
2022-08-25T18:56:29.162Z,6.35
2022-08-25T18:58:57.172Z,6.78
2022-08-25T19:01:24.556Z,8.00
2022-08-25T19:03:51.745Z,6.15
2022-08-25T19:06:19.550Z,4.68
2022-08-25T19:08:48.151Z,4.47
2022-08-25T19:11:16.187Z,7.13
2022-08-25T19:13:43.949Z,6.78
2022-08-25T19:16:34.109Z,7.53
2022-08-25T19:19:02.526Z,8.93
2022-08-25T19:21:31.311Z,15.65
2022-08-25T19:24:00.659Z,5.32
2022-08-25T19:26:30.680Z,4.10
2022-08-25T19:28:58.019Z,5.82
2022-08-25T19:31:26.583Z,5.10
2022-08-25T19:33:55.800Z,5.75
2022-08-25T19:36:28.119Z,4.60
2022-08-25T19:38:58.678Z,6.30
2022-08-25T19:41:27.789Z,4.50
2022-08-25T19:43:57.470Z,3.58
2022-08-25T19:46:35.688Z,8.55
2022-08-25T19:49:16.260Z,6.35
2022-08-25T19:51:47.529Z,5.18
2022-08-25T19:54:24.287Z,4.93
2022-08-25T19:56:54.755Z,7.65
2022-08-25T19:59:40.467Z,5.35
2022-08-25T20:02:15.474Z,4.32
2022-08-25T20:04:49.222Z,5.65
2022-08-25T20:07:18.847Z,8.07
2022-08-25T20:09:46.107Z,6.35
2022-08-25T20:14:47.917Z,4.07
2022-08-25T20:17:24.685Z,10.90
2022-08-25T20:19:58.791Z,6.38
2022-08-25T20:22:28.306Z,5.45
2022-08-25T20:25:01.264Z,8.40
2022-08-25T20:27:35.866Z,5.25
2022-08-25T20:30:09.819Z,4.25
2022-08-25T20:32:37.344Z,5.80
2022-08-25T20:35:08.942Z,4.22
2022-08-25T20:37:36.697Z,11.20
2022-08-25T20:40:07.167Z,5.78
2022-08-25T20:42:34.768Z,7.82
2022-08-25T20:45:01.928Z,7.90
2022-08-25T20:47:29.117Z,6.95
2022-08-25T20:50:00.364Z,4.85
2022-08-25T20:52:32.014Z,8.73
2022-08-25T20:54:59.431Z,8.82
2022-08-25T20:57:26.937Z,7.18
2022-08-25T20:59:56.994Z,5.35
2022-08-25T21:02:25.713Z,7.38
2022-08-25T21:04:54.276Z,9.30
2022-08-25T21:07:24.909Z,5.00
2022-08-25T21:09:52.402Z,8.57
2022-08-25T21:12:20.682Z,8.02
2022-08-25T21:14:48.276Z,7.45
2022-08-25T21:17:16.363Z,7.72
2022-08-25T21:22:13.807Z,6.32
2022-08-25T21:24:41.023Z,7.53
2022-08-25T21:27:08.337Z,6.65
2022-08-25T21:29:35.751Z,4.05
2022-08-25T21:32:03.011Z,5.13
2022-08-25T21:34:31.156Z,5.25
2022-08-25T21:36:59.401Z,6.82
2022-08-25T21:39:28.790Z,5.20
2022-08-25T21:41:56.603Z,6.85
2022-08-25T21:44:23.750Z,6.80
2022-08-25T21:46:54.281Z,6.60
2022-08-25T21:49:23.042Z,7.00
2022-08-25T21:52:02.379Z,8.68
2022-08-25T21:54:32.222Z,4.47
2022-08-25T21:57:05.689Z,8.95
2022-08-25T21:59:36.691Z,6.82
2022-08-25T22:02:07.484Z,10.75
2022-08-25T22:04:35.820Z,7.72
2022-08-25T22:07:03.037Z,10.30
2022-08-25T22:09:31.361Z,9.65
2022-08-25T22:11:59.060Z,8.45
2022-08-25T22:14:26.770Z,9.30
2022-08-25T22:16:55.182Z,7.38
2022-08-25T22:19:22.757Z,4.93
2022-08-25T22:21:51.108Z,7.65
2022-08-25T22:24:19.403Z,7.95
2022-08-25T22:26:49.201Z,8.57
2022-08-25T22:29:24.847Z,8.00
2022-08-25T22:31:53.032Z,7.00
2022-08-25T22:34:30.283Z,6.10
2022-08-25T22:37:00.163Z,6.85
2022-08-25T22:39:28.438Z,7.63
2022-08-25T22:41:55.768Z,7.57
2022-08-25T22:44:23.508Z,7.85
2022-08-25T22:46:50.597Z,10.80
2022-08-25T22:49:18.089Z,12.00
2022-08-25T22:51:47.093Z,12.70
2022-08-25T22:54:15.233Z,11.07
2022-08-25T22:56:42.623Z,9.82
2022-08-25T22:59:13.197Z,8.07
2022-08-25T23:01:42.749Z,8.10
2022-08-25T23:04:10.695Z,5.75
2022-08-25T23:06:38.357Z,8.70
2022-08-25T23:09:08.085Z,14.25
2022-08-25T23:11:38.584Z,8.05
2022-08-25T23:14:10.249Z,8.43
2022-08-25T23:16:42.453Z,7.97
2022-08-25T23:19:11.125Z,12.65
2022-08-25T23:22:00.631Z,8.45
2022-08-25T23:24:30.268Z,11.65
2022-08-25T23:27:02.395Z,8.95
2022-08-25T23:29:31.903Z,11.20
2022-08-25T23:31:59.402Z,6.68
2022-08-25T23:34:27.227Z,9.70
2022-08-25T23:36:56.032Z,7.22
2022-08-25T23:39:23.170Z,10.30
2022-08-25T23:41:51.787Z,7.00
2022-08-25T23:44:20.237Z,9.73
2022-08-25T23:46:48.783Z,8.68
2022-08-25T23:49:18.954Z,5.50
2022-08-25T23:51:48.952Z,6.60
2022-08-25T23:54:18.947Z,7.40
2022-08-25T23:56:51.963Z,7.35
2022-08-25T23:59:25.262Z,7.28
